Terminal Aerodrome Forecast
Issued by NWS Green Bay, WI

Home | Current Version | Previous Version | Graphics & Text | Print | Product List | Glossary On
Versions: 1 2 3 4 5 6 7 8 9 10 11 12 13 14 15 16 17 18 19 20 21 22 23 24 25 26
000
FTUS43 KGRB 260400 AAA
TAFGRB
TAF AMD
KGRB 260419Z 2604/2624 02013G22KT P6SM SKC
     FM260800 02009KT P6SM SKC
     FM261600 36008G13KT P6SM SKC
     FM262300 32005KT P6SM SKC=

USA.gov is the U.S. government's official web portal to all federal, state and local government web resources and services.